sensor_id;sensor_type;location;lat;lon;timestamp;P1;durP1;ratioP1;P2;durP2;ratioP2
10957;SDS011;5531;42.570;23.676;2023-01-08T00:01:47;15.18;;;12.32;;
10957;SDS011;5531;42.570;23.676;2023-01-08T00:04:19;16.38;;;12.60;;
10957;SDS011;5531;42.570;23.676;2023-01-08T00:06:48;14.93;;;11.07;;
10957;SDS011;5531;42.570;23.676;2023-01-08T00:09:17;14.68;;;11.27;;
10957;SDS011;5531;42.570;23.676;2023-01-08T00:11:46;14.52;;;11.80;;
10957;SDS011;5531;42.570;23.676;2023-01-08T00:14:16;13.93;;;11.15;;
10957;SDS011;5531;42.570;23.676;2023-01-08T00:16:44;13.27;;;10.77;;
10957;SDS011;5531;42.570;23.676;2023-01-08T00:19:16;13.63;;;10.95;;
10957;SDS011;5531;42.570;23.676;2023-01-08T00:21:45;17.08;;;12.02;;
10957;SDS011;5531;42.570;23.676;2023-01-08T00:24:14;15.27;;;11.43;;
10957;SDS011;5531;42.570;23.676;2023-01-08T00:26:45;15.55;;;11.52;;
10957;SDS011;5531;42.570;23.676;2023-01-08T00:29:14;12.57;;;10.30;;
10957;SDS011;5531;42.570;23.676;2023-01-08T00:31:43;11.95;;;9.45;;
10957;SDS011;5531;42.570;23.676;2023-01-08T00:34:12;10.73;;;9.48;;
10957;SDS011;5531;42.570;23.676;2023-01-08T00:36:44;10.35;;;8.77;;
10957;SDS011;5531;42.570;23.676;2023-01-08T00:39:13;11.70;;;8.82;;
10957;SDS011;5531;42.570;23.676;2023-01-08T00:41:42;13.70;;;9.85;;
10957;SDS011;5531;42.570;23.676;2023-01-08T00:44:10;15.07;;;9.93;;
10957;SDS011;5531;42.570;23.676;2023-01-08T00:46:39;11.45;;;8.55;;
10957;SDS011;5531;42.570;23.676;2023-01-08T00:49:08;10.98;;;8.80;;
10957;SDS011;5531;42.570;23.676;2023-01-08T00:51:37;15.35;;;9.45;;
10957;SDS011;5531;42.570;23.676;2023-01-08T00:54:10;12.15;;;9.27;;
10957;SDS011;5531;42.570;23.676;2023-01-08T00:56:39;11.60;;;9.50;;
10957;SDS011;5531;42.570;23.676;2023-01-08T00:59:08;11.95;;;9.65;;
10957;SDS011;5531;42.570;23.676;2023-01-08T01:01:37;13.13;;;9.75;;
10957;SDS011;5531;42.570;23.676;2023-01-08T01:04:06;12.63;;;9.55;;
10957;SDS011;5531;42.570;23.676;2023-01-08T01:06:35;11.05;;;9.32;;
10957;SDS011;5531;42.570;23.676;2023-01-08T01:09:04;12.65;;;10.68;;
10957;SDS011;5531;42.570;23.676;2023-01-08T01:11:36;14.13;;;9.90;;
10957;SDS011;5531;42.570;23.676;2023-01-08T01:14:05;12.18;;;9.23;;
10957;SDS011;5531;42.570;23.676;2023-01-08T01:16:34;14.27;;;9.77;;
10957;SDS011;5531;42.570;23.676;2023-01-08T01:19:04;15.40;;;10.68;;
10957;SDS011;5531;42.570;23.676;2023-01-08T01:21:33;16.15;;;11.40;;
10957;SDS011;5531;42.570;23.676;2023-01-08T01:24:03;14.25;;;10.55;;
10957;SDS011;5531;42.570;23.676;2023-01-08T01:26:35;12.52;;;9.48;;
10957;SDS011;5531;42.570;23.676;2023-01-08T01:29:04;10.55;;;9.45;;
10957;SDS011;5531;42.570;23.676;2023-01-08T01:31:34;13.65;;;10.10;;
10957;SDS011;5531;42.570;23.676;2023-01-08T01:34:03;13.10;;;9.95;;
10957;SDS011;5531;42.570;23.676;2023-01-08T01:36:32;12.68;;;9.63;;
10957;SDS011;5531;42.570;23.676;2023-01-08T01:39:01;12.43;;;9.82;;
10957;SDS011;5531;42.570;23.676;2023-01-08T01:41:31;13.63;;;9.73;;
10957;SDS011;5531;42.570;23.676;2023-01-08T01:47:12;12.98;;;9.77;;
10957;SDS011;5531;42.570;23.676;2023-01-08T01:49:49;12.70;;;10.75;;
10957;SDS011;5531;42.570;23.676;2023-01-08T01:52:22;11.80;;;10.07;;
10957;SDS011;5531;42.570;23.676;2023-01-08T01:54:52;14.60;;;11.32;;
10957;SDS011;5531;42.570;23.676;2023-01-08T01:57:22;14.23;;;10.45;;
10957;SDS011;5531;42.570;23.676;2023-01-08T01:59:54;12.32;;;10.02;;
10957;SDS011;5531;42.570;23.676;2023-01-08T02:02:25;12.40;;;10.45;;
10957;SDS011;5531;42.570;23.676;2023-01-08T02:04:56;16.60;;;11.27;;
10957;SDS011;5531;42.570;23.676;2023-01-08T02:07:26;14.00;;;11.02;;
10957;SDS011;5531;42.570;23.676;2023-01-08T02:10:03;17.42;;;12.77;;
10957;SDS011;5531;42.570;23.676;2023-01-08T02:12:38;17.52;;;12.07;;
10957;SDS011;5531;42.570;23.676;2023-01-08T02:15:15;13.40;;;10.35;;
10957;SDS011;5531;42.570;23.676;2023-01-08T02:17:50;10.75;;;8.85;;
10957;SDS011;5531;42.570;23.676;2023-01-08T02:20:26;11.30;;;8.48;;
10957;SDS011;5531;42.570;23.676;2023-01-08T02:26:08;9.27;;;7.60;;
10957;SDS011;5531;42.570;23.676;2023-01-08T02:28:41;10.40;;;8.00;;
10957;SDS011;5531;42.570;23.676;2023-01-08T02:31:13;9.43;;;8.43;;
10957;SDS011;5531;42.570;23.676;2023-01-08T02:33:43;13.43;;;10.13;;
10957;SDS011;5531;42.570;23.676;2023-01-08T02:39:10;13.30;;;10.02;;
10957;SDS011;5531;42.570;23.676;2023-01-08T02:41:51;10.90;;;9.05;;
10957;SDS011;5531;42.570;23.676;2023-01-08T02:44:26;11.68;;;7.65;;
10957;SDS011;5531;42.570;23.676;2023-01-08T02:47:03;10.15;;;7.45;;
10957;SDS011;5531;42.570;23.676;2023-01-08T02:49:36;7.75;;;6.90;;
10957;SDS011;5531;42.570;23.676;2023-01-08T02:52:10;9.15;;;7.38;;
10957;SDS011;5531;42.570;23.676;2023-01-08T02:54:40;15.10;;;9.48;;
10957;SDS011;5531;42.570;23.676;2023-01-08T02:57:15;13.30;;;9.13;;
10957;SDS011;5531;42.570;23.676;2023-01-08T02:59:46;24.40;;;16.67;;
10957;SDS011;5531;42.570;23.676;2023-01-08T03:02:17;22.58;;;16.77;;
10957;SDS011;5531;42.570;23.676;2023-01-08T03:04:49;23.30;;;17.05;;
10957;SDS011;5531;42.570;23.676;2023-01-08T03:07:20;22.85;;;17.20;;
10957;SDS011;5531;42.570;23.676;2023-01-08T03:09:49;22.65;;;16.67;;
10957;SDS011;5531;42.570;23.676;2023-01-08T03:12:22;22.15;;;15.90;;
10957;SDS011;5531;42.570;23.676;2023-01-08T03:14:59;23.92;;;17.25;;
10957;SDS011;5531;42.570;23.676;2023-01-08T03:17:34;20.23;;;14.88;;
10957;SDS011;5531;42.570;23.676;2023-01-08T03:20:06;16.13;;;12.13;;
10957;SDS011;5531;42.570;23.676;2023-01-08T03:22:39;15.88;;;11.80;;
10957;SDS011;5531;42.570;23.676;2023-01-08T03:25:12;17.90;;;11.90;;
10957;SDS011;5531;42.570;23.676;2023-01-08T03:27:46;14.95;;;11.80;;
10957;SDS011;5531;42.570;23.676;2023-01-08T03:30:19;16.27;;;12.60;;
10957;SDS011;5531;42.570;23.676;2023-01-08T03:32:49;17.95;;;13.23;;
10957;SDS011;5531;42.570;23.676;2023-01-08T03:35:22;18.10;;;13.13;;
10957;SDS011;5531;42.570;23.676;2023-01-08T03:37:53;20.23;;;14.43;;
10957;SDS011;5531;42.570;23.676;2023-01-08T03:40:28;18.83;;;13.18;;
10957;SDS011;5531;42.570;23.676;2023-01-08T03:43:05;17.23;;;12.38;;
10957;SDS011;5531;42.570;23.676;2023-01-08T03:45:34;17.52;;;13.10;;
10957;SDS011;5531;42.570;23.676;2023-01-08T03:48:06;16.20;;;12.65;;
10957;SDS011;5531;42.570;23.676;2023-01-08T03:50:36;15.55;;;11.43;;
10957;SDS011;5531;42.570;23.676;2023-01-08T03:53:07;14.50;;;11.55;;
10957;SDS011;5531;42.570;23.676;2023-01-08T03:55:36;14.45;;;10.40;;
10957;SDS011;5531;42.570;23.676;2023-01-08T03:58:08;14.05;;;8.18;;
10957;SDS011;5531;42.570;23.676;2023-01-08T04:00:37;7.93;;;6.95;;
10957;SDS011;5531;42.570;23.676;2023-01-08T04:03:06;7.25;;;6.05;;
10957;SDS011;5531;42.570;23.676;2023-01-08T04:05:35;8.48;;;5.95;;
10957;SDS011;5531;42.570;23.676;2023-01-08T04:08:04;7.25;;;5.40;;
10957;SDS011;5531;42.570;23.676;2023-01-08T04:10:33;8.68;;;6.38;;
10957;SDS011;5531;42.570;23.676;2023-01-08T04:13:02;14.32;;;10.10;;
10957;SDS011;5531;42.570;23.676;2023-01-08T04:15:34;19.27;;;12.98;;
10957;SDS011;5531;42.570;23.676;2023-01-08T04:18:03;16.13;;;12.27;;
10957;SDS011;5531;42.570;23.676;2023-01-08T04:20:32;16.02;;;11.20;;
10957;SDS011;5531;42.570;23.676;2023-01-08T04:23:01;13.85;;;10.10;;
10957;SDS011;5531;42.570;23.676;2023-01-08T04:25:30;11.25;;;9.00;;
10957;SDS011;5531;42.570;23.676;2023-01-08T04:27:59;11.45;;;8.77;;
10957;SDS011;5531;42.570;23.676;2023-01-08T04:30:28;11.23;;;8.80;;
10957;SDS011;5531;42.570;23.676;2023-01-08T04:32:59;11.70;;;8.40;;
10957;SDS011;5531;42.570;23.676;2023-01-08T04:35:28;10.32;;;8.20;;
10957;SDS011;5531;42.570;23.676;2023-01-08T04:37:57;9.18;;;7.20;;
10957;SDS011;5531;42.570;23.676;2023-01-08T04:40:26;9.63;;;7.35;;
10957;SDS011;5531;42.570;23.676;2023-01-08T04:42:56;9.15;;;7.55;;
10957;SDS011;5531;42.570;23.676;2023-01-08T04:45:24;8.70;;;7.13;;
10957;SDS011;5531;42.570;23.676;2023-01-08T04:47:54;8.95;;;8.00;;
10957;SDS011;5531;42.570;23.676;2023-01-08T04:50:26;10.88;;;8.48;;
10957;SDS011;5531;42.570;23.676;2023-01-08T04:52:57;10.93;;;8.10;;
10957;SDS011;5531;42.570;23.676;2023-01-08T04:55:26;9.65;;;8.05;;
10957;SDS011;5531;42.570;23.676;2023-01-08T04:57:55;12.23;;;9.27;;
10957;SDS011;5531;42.570;23.676;2023-01-08T05:00:24;15.38;;;10.32;;
10957;SDS011;5531;42.570;23.676;2023-01-08T05:02:53;14.15;;;9.80;;
10957;SDS011;5531;42.570;23.676;2023-01-08T05:05:22;12.80;;;9.20;;
10957;SDS011;5531;42.570;23.676;2023-01-08T05:07:54;11.60;;;8.45;;
10957;SDS011;5531;42.570;23.676;2023-01-08T05:10:23;12.55;;;10.52;;
10957;SDS011;5531;42.570;23.676;2023-01-08T05:12:52;20.75;;;15.88;;
10957;SDS011;5531;42.570;23.676;2023-01-08T05:15:25;19.40;;;15.63;;
10957;SDS011;5531;42.570;23.676;2023-01-08T05:17:57;19.83;;;15.00;;
10957;SDS011;5531;42.570;23.676;2023-01-08T05:20:27;18.80;;;14.18;;
10957;SDS011;5531;42.570;23.676;2023-01-08T05:22:59;17.63;;;15.82;;
10957;SDS011;5531;42.570;23.676;2023-01-08T05:25:28;14.50;;;12.70;;
10957;SDS011;5531;42.570;23.676;2023-01-08T05:27:57;16.77;;;12.35;;
10957;SDS011;5531;42.570;23.676;2023-01-08T05:30:27;15.55;;;12.10;;
10957;SDS011;5531;42.570;23.676;2023-01-08T05:32:56;13.30;;;10.27;;
10957;SDS011;5531;42.570;23.676;2023-01-08T05:35:25;11.88;;;9.52;;
10957;SDS011;5531;42.570;23.676;2023-01-08T05:37:54;12.05;;;9.05;;
10957;SDS011;5531;42.570;23.676;2023-01-08T05:40:25;11.27;;;9.25;;
10957;SDS011;5531;42.570;23.676;2023-01-08T05:42:54;11.18;;;8.30;;
10957;SDS011;5531;42.570;23.676;2023-01-08T05:45:26;12.82;;;8.48;;
10957;SDS011;5531;42.570;23.676;2023-01-08T05:47:55;10.65;;;8.43;;
10957;SDS011;5531;42.570;23.676;2023-01-08T05:50:24;10.70;;;7.82;;
10957;SDS011;5531;42.570;23.676;2023-01-08T05:52:53;7.60;;;6.80;;
10957;SDS011;5531;42.570;23.676;2023-01-08T05:55:25;8.90;;;6.80;;
10957;SDS011;5531;42.570;23.676;2023-01-08T05:57:54;10.13;;;7.03;;
10957;SDS011;5531;42.570;23.676;2023-01-08T06:00:23;7.22;;;6.28;;
10957;SDS011;5531;42.570;23.676;2023-01-08T06:02:52;8.43;;;6.70;;
10957;SDS011;5531;42.570;23.676;2023-01-08T06:05:21;7.13;;;5.85;;
10957;SDS011;5531;42.570;23.676;2023-01-08T06:07:50;7.53;;;6.40;;
10957;SDS011;5531;42.570;23.676;2023-01-08T06:10:26;9.05;;;6.45;;
10957;SDS011;5531;42.570;23.676;2023-01-08T06:12:55;7.63;;;6.32;;
10957;SDS011;5531;42.570;23.676;2023-01-08T06:15:24;9.70;;;7.00;;
10957;SDS011;5531;42.570;23.676;2023-01-08T06:17:53;8.60;;;6.70;;
10957;SDS011;5531;42.570;23.676;2023-01-08T06:20:22;9.45;;;7.03;;
10957;SDS011;5531;42.570;23.676;2023-01-08T06:22:52;8.93;;;7.00;;
10957;SDS011;5531;42.570;23.676;2023-01-08T06:25:21;10.43;;;8.07;;
10957;SDS011;5531;42.570;23.676;2023-01-08T06:27:53;13.18;;;10.50;;
10957;SDS011;5531;42.570;23.676;2023-01-08T06:30:22;16.27;;;12.50;;
10957;SDS011;5531;42.570;23.676;2023-01-08T06:32:54;16.38;;;11.35;;
10957;SDS011;5531;42.570;23.676;2023-01-08T06:35:23;16.40;;;12.77;;
10957;SDS011;5531;42.570;23.676;2023-01-08T06:37:53;22.25;;;15.77;;
10957;SDS011;5531;42.570;23.676;2023-01-08T06:40:22;29.48;;;19.35;;
10957;SDS011;5531;42.570;23.676;2023-01-08T06:42:54;28.67;;;20.08;;
10957;SDS011;5531;42.570;23.676;2023-01-08T06:45:23;31.50;;;21.20;;
10957;SDS011;5531;42.570;23.676;2023-01-08T06:47:52;28.38;;;19.20;;
10957;SDS011;5531;42.570;23.676;2023-01-08T06:50:21;24.48;;;17.70;;
10957;SDS011;5531;42.570;23.676;2023-01-08T06:52:51;20.77;;;15.50;;
10957;SDS011;5531;42.570;23.676;2023-01-08T06:55:21;17.98;;;13.27;;
10957;SDS011;5531;42.570;23.676;2023-01-08T06:57:55;19.50;;;12.85;;
10957;SDS011;5531;42.570;23.676;2023-01-08T07:00:25;16.67;;;11.35;;
10957;SDS011;5531;42.570;23.676;2023-01-08T07:02:54;13.80;;;9.20;;
10957;SDS011;5531;42.570;23.676;2023-01-08T07:05:24;14.68;;;11.57;;
10957;SDS011;5531;42.570;23.676;2023-01-08T07:07:53;17.00;;;11.50;;
10957;SDS011;5531;42.570;23.676;2023-01-08T07:10:22;13.43;;;10.35;;
10957;SDS011;5531;42.570;23.676;2023-01-08T07:12:51;15.00;;;10.52;;
10957;SDS011;5531;42.570;23.676;2023-01-08T07:15:23;13.32;;;10.52;;
10957;SDS011;5531;42.570;23.676;2023-01-08T07:17:52;19.10;;;13.55;;
10957;SDS011;5531;42.570;23.676;2023-01-08T07:20:21;18.88;;;13.07;;
10957;SDS011;5531;42.570;23.676;2023-01-08T07:22:50;17.00;;;12.38;;
10957;SDS011;5531;42.570;23.676;2023-01-08T07:25:19;28.52;;;15.38;;
10957;SDS011;5531;42.570;23.676;2023-01-08T07:27:48;26.05;;;14.80;;
10957;SDS011;5531;42.570;23.676;2023-01-08T07:30:20;23.85;;;14.52;;
10957;SDS011;5531;42.570;23.676;2023-01-08T07:32:49;21.15;;;12.85;;
10957;SDS011;5531;42.570;23.676;2023-01-08T07:35:18;19.13;;;12.57;;
10957;SDS011;5531;42.570;23.676;2023-01-08T07:37:47;23.05;;;16.33;;
10957;SDS011;5531;42.570;23.676;2023-01-08T07:40:16;19.88;;;13.63;;
10957;SDS011;5531;42.570;23.676;2023-01-08T07:42:45;14.40;;;10.82;;
10957;SDS011;5531;42.570;23.676;2023-01-08T07:45:14;14.63;;;10.88;;
10957;SDS011;5531;42.570;23.676;2023-01-08T07:47:45;12.98;;;9.48;;
10957;SDS011;5531;42.570;23.676;2023-01-08T07:50:14;14.10;;;10.02;;
10957;SDS011;5531;42.570;23.676;2023-01-08T07:52:43;14.52;;;10.82;;
10957;SDS011;5531;42.570;23.676;2023-01-08T07:55:13;9.85;;;8.00;;
10957;SDS011;5531;42.570;23.676;2023-01-08T07:57:42;12.65;;;7.97;;
10957;SDS011;5531;42.570;23.676;2023-01-08T08:00:11;11.68;;;8.30;;
10957;SDS011;5531;42.570;23.676;2023-01-08T08:02:41;8.73;;;7.20;;
10957;SDS011;5531;42.570;23.676;2023-01-08T08:05:13;12.32;;;9.73;;
10957;SDS011;5531;42.570;23.676;2023-01-08T08:07:42;11.30;;;9.20;;
10957;SDS011;5531;42.570;23.676;2023-01-08T08:10:11;12.30;;;10.55;;
10957;SDS011;5531;42.570;23.676;2023-01-08T08:12:43;8.85;;;7.07;;
10957;SDS011;5531;42.570;23.676;2023-01-08T08:15:12;7.13;;;5.97;;
10957;SDS011;5531;42.570;23.676;2023-01-08T08:17:46;7.85;;;6.30;;
10957;SDS011;5531;42.570;23.676;2023-01-08T08:20:15;7.20;;;6.25;;
10957;SDS011;5531;42.570;23.676;2023-01-08T08:22:44;8.27;;;5.40;;
10957;SDS011;5531;42.570;23.676;2023-01-08T08:25:13;5.72;;;4.80;;
10957;SDS011;5531;42.570;23.676;2023-01-08T08:27:43;7.60;;;4.60;;
10957;SDS011;5531;42.570;23.676;2023-01-08T08:30:12;5.68;;;4.50;;
10957;SDS011;5531;42.570;23.676;2023-01-08T08:32:42;5.97;;;4.65;;
10957;SDS011;5531;42.570;23.676;2023-01-08T08:35:16;6.22;;;4.50;;
10957;SDS011;5531;42.570;23.676;2023-01-08T08:37:45;7.93;;;4.68;;
10957;SDS011;5531;42.570;23.676;2023-01-08T08:40:15;6.78;;;4.57;;
10957;SDS011;5531;42.570;23.676;2023-01-08T08:42:44;6.30;;;4.30;;
10957;SDS011;5531;42.570;23.676;2023-01-08T08:45:13;5.72;;;4.05;;
10957;SDS011;5531;42.570;23.676;2023-01-08T08:47:42;4.88;;;3.90;;
10957;SDS011;5531;42.570;23.676;2023-01-08T08:50:11;4.63;;;4.10;;
10957;SDS011;5531;42.570;23.676;2023-01-08T08:52:43;7.70;;;4.32;;
10957;SDS011;5531;42.570;23.676;2023-01-08T08:55:13;5.40;;;3.80;;
10957;SDS011;5531;42.570;23.676;2023-01-08T08:57:43;7.32;;;3.65;;
10957;SDS011;5531;42.570;23.676;2023-01-08T09:00:14;5.90;;;4.40;;
10957;SDS011;5531;42.570;23.676;2023-01-08T09:02:43;7.03;;;4.03;;
10957;SDS011;5531;42.570;23.676;2023-01-08T09:05:12;3.97;;;3.47;;
10957;SDS011;5531;42.570;23.676;2023-01-08T09:07:44;4.65;;;3.70;;
10957;SDS011;5531;42.570;23.676;2023-01-08T09:10:13;4.13;;;3.40;;
10957;SDS011;5531;42.570;23.676;2023-01-08T09:12:42;4.82;;;3.50;;
10957;SDS011;5531;42.570;23.676;2023-01-08T09:15:11;4.22;;;3.67;;
10957;SDS011;5531;42.570;23.676;2023-01-08T09:17:40;5.15;;;3.83;;
10957;SDS011;5531;42.570;23.676;2023-01-08T09:20:10;3.72;;;3.30;;
10957;SDS011;5531;42.570;23.676;2023-01-08T09:22:45;3.85;;;3.33;;
10957;SDS011;5531;42.570;23.676;2023-01-08T09:25:14;4.10;;;3.30;;
10957;SDS011;5531;42.570;23.676;2023-01-08T09:27:44;5.32;;;3.13;;
10957;SDS011;5531;42.570;23.676;2023-01-08T09:30:13;3.33;;;3.03;;
10957;SDS011;5531;42.570;23.676;2023-01-08T09:32:43;4.25;;;3.50;;
10957;SDS011;5531;42.570;23.676;2023-01-08T09:35:12;6.25;;;3.25;;
10957;SDS011;5531;42.570;23.676;2023-01-08T09:37:41;3.67;;;3.15;;
10957;SDS011;5531;42.570;23.676;2023-01-08T09:40:16;4.13;;;2.90;;
10957;SDS011;5531;42.570;23.676;2023-01-08T09:42:45;3.78;;;3.10;;
10957;SDS011;5531;42.570;23.676;2023-01-08T09:45:22;4.03;;;3.40;;
10957;SDS011;5531;42.570;23.676;2023-01-08T09:47:54;4.38;;;3.10;;
10957;SDS011;5531;42.570;23.676;2023-01-08T09:50:25;4.03;;;2.92;;
10957;SDS011;5531;42.570;23.676;2023-01-08T09:52:56;4.43;;;3.10;;
10957;SDS011;5531;42.570;23.676;2023-01-08T09:55:30;3.63;;;3.05;;
10957;SDS011;5531;42.570;23.676;2023-01-08T09:58:01;5.68;;;3.35;;
10957;SDS011;5531;42.570;23.676;2023-01-08T10:00:31;3.83;;;3.28;;
10957;SDS011;5531;42.570;23.676;2023-01-08T10:03:01;4.13;;;3.17;;
10957;SDS011;5531;42.570;23.676;2023-01-08T10:05:31;5.05;;;3.53;;
10957;SDS011;5531;42.570;23.676;2023-01-08T10:08:01;5.20;;;3.50;;
10957;SDS011;5531;42.570;23.676;2023-01-08T10:10:34;4.88;;;3.15;;
10957;SDS011;5531;42.570;23.676;2023-01-08T10:13:04;5.13;;;3.45;;
10957;SDS011;5531;42.570;23.676;2023-01-08T10:15:33;4.75;;;3.63;;
10957;SDS011;5531;42.570;23.676;2023-01-08T10:18:03;5.88;;;3.40;;
10957;SDS011;5531;42.570;23.676;2023-01-08T10:20:34;4.57;;;3.60;;
10957;SDS011;5531;42.570;23.676;2023-01-08T10:23:07;5.68;;;3.38;;
10957;SDS011;5531;42.570;23.676;2023-01-08T10:25:54;4.05;;;3.40;;
10957;SDS011;5531;42.570;23.676;2023-01-08T10:28:25;4.13;;;3.50;;
10957;SDS011;5531;42.570;23.676;2023-01-08T10:30:58;3.92;;;3.53;;
10957;SDS011;5531;42.570;23.676;2023-01-08T10:33:36;4.60;;;3.92;;
10957;SDS011;5531;42.570;23.676;2023-01-08T10:36:09;5.78;;;3.88;;
10957;SDS011;5531;42.570;23.676;2023-01-08T10:38:41;4.57;;;3.20;;
10957;SDS011;5531;42.570;23.676;2023-01-08T10:41:20;4.75;;;3.33;;
10957;SDS011;5531;42.570;23.676;2023-01-08T10:43:53;5.65;;;3.30;;
10957;SDS011;5531;42.570;23.676;2023-01-08T10:46:26;4.20;;;3.33;;
10957;SDS011;5531;42.570;23.676;2023-01-08T10:49:00;3.88;;;3.35;;
10957;SDS011;5531;42.570;23.676;2023-01-08T10:51:32;4.15;;;3.60;;
10957;SDS011;5531;42.570;23.676;2023-01-08T10:54:12;4.32;;;3.88;;
10957;SDS011;5531;42.570;23.676;2023-01-08T10:56:53;3.60;;;3.30;;
10957;SDS011;5531;42.570;23.676;2023-01-08T10:59:22;7.07;;;3.65;;
10957;SDS011;5531;42.570;23.676;2023-01-08T11:01:52;5.05;;;3.25;;
10957;SDS011;5531;42.570;23.676;2023-01-08T11:04:25;4.95;;;3.63;;
10957;SDS011;5531;42.570;23.676;2023-01-08T11:06:56;4.43;;;3.50;;
10957;SDS011;5531;42.570;23.676;2023-01-08T11:09:29;4.38;;;3.60;;
10957;SDS011;5531;42.570;23.676;2023-01-08T11:12:03;4.40;;;3.63;;
10957;SDS011;5531;42.570;23.676;2023-01-08T11:14:33;4.55;;;3.22;;
10957;SDS011;5531;42.570;23.676;2023-01-08T11:17:07;3.92;;;3.25;;
10957;SDS011;5531;42.570;23.676;2023-01-08T11:19:38;4.70;;;3.55;;
10957;SDS011;5531;42.570;23.676;2023-01-08T11:22:16;4.97;;;3.50;;
10957;SDS011;5531;42.570;23.676;2023-01-08T11:24:46;4.45;;;2.95;;
10957;SDS011;5531;42.570;23.676;2023-01-08T11:27:22;4.35;;;3.20;;
10957;SDS011;5531;42.570;23.676;2023-01-08T11:29:56;4.10;;;2.40;;
10957;SDS011;5531;42.570;23.676;2023-01-08T11:32:36;3.30;;;2.70;;
10957;SDS011;5531;42.570;23.676;2023-01-08T11:35:12;4.70;;;3.15;;
10957;SDS011;5531;42.570;23.676;2023-01-08T11:37:47;4.07;;;3.00;;
10957;SDS011;5531;42.570;23.676;2023-01-08T11:40:22;3.80;;;3.40;;
10957;SDS011;5531;42.570;23.676;2023-01-08T11:43:09;5.63;;;4.05;;
10957;SDS011;5531;42.570;23.676;2023-01-08T11:45:50;6.10;;;4.13;;
10957;SDS011;5531;42.570;23.676;2023-01-08T11:48:32;4.50;;;3.70;;
10957;SDS011;5531;42.570;23.676;2023-01-08T11:54:03;5.68;;;4.18;;
10957;SDS011;5531;42.570;23.676;2023-01-08T11:56:49;4.85;;;4.00;;
10957;SDS011;5531;42.570;23.676;2023-01-08T11:59:35;5.30;;;4.03;;
10957;SDS011;5531;42.570;23.676;2023-01-08T12:02:18;4.97;;;3.83;;
10957;SDS011;5531;42.570;23.676;2023-01-08T12:04:57;5.25;;;3.92;;
10957;SDS011;5531;42.570;23.676;2023-01-08T12:07:45;5.50;;;4.10;;
10957;SDS011;5531;42.570;23.676;2023-01-08T12:10:22;4.47;;;3.85;;
10957;SDS011;5531;42.570;23.676;2023-01-08T12:12:56;4.78;;;3.88;;
10957;SDS011;5531;42.570;23.676;2023-01-08T12:15:38;4.60;;;4.10;;
10957;SDS011;5531;42.570;23.676;2023-01-08T12:18:18;5.82;;;4.28;;
10957;SDS011;5531;42.570;23.676;2023-01-08T12:21:04;4.72;;;3.85;;
10957;SDS011;5531;42.570;23.676;2023-01-08T12:26:37;4.63;;;4.20;;
10957;SDS011;5531;42.570;23.676;2023-01-08T12:29:18;5.10;;;4.60;;
10957;SDS011;5531;42.570;23.676;2023-01-08T12:32:11;5.22;;;4.28;;
10957;SDS011;5531;42.570;23.676;2023-01-08T12:34:54;5.25;;;4.25;;
10957;SDS011;5531;42.570;23.676;2023-01-08T12:37:29;6.13;;;4.82;;
10957;SDS011;5531;42.570;23.676;2023-01-08T12:40:05;5.00;;;4.47;;
10957;SDS011;5531;42.570;23.676;2023-01-08T12:42:42;4.53;;;4.03;;
10957;SDS011;5531;42.570;23.676;2023-01-08T12:45:16;4.22;;;3.83;;
10957;SDS011;5531;42.570;23.676;2023-01-08T12:47:52;4.30;;;3.90;;
10957;SDS011;5531;42.570;23.676;2023-01-08T12:53:21;4.30;;;3.80;;
10957;SDS011;5531;42.570;23.676;2023-01-08T12:55:59;5.88;;;3.83;;
10957;SDS011;5531;42.570;23.676;2023-01-08T12:58:34;4.00;;;3.60;;
10957;SDS011;5531;42.570;23.676;2023-01-08T13:01:15;5.20;;;4.70;;
10957;SDS011;5531;42.570;23.676;2023-01-08T13:03:57;5.80;;;4.18;;
10957;SDS011;5531;42.570;23.676;2023-01-08T13:06:28;5.30;;;4.10;;
10957;SDS011;5531;42.570;23.676;2023-01-08T13:08:58;5.43;;;4.72;;
10957;SDS011;5531;42.570;23.676;2023-01-08T13:11:35;5.85;;;4.97;;
10957;SDS011;5531;42.570;23.676;2023-01-08T13:14:39;6.00;;;5.35;;
10957;SDS011;5531;42.570;23.676;2023-01-08T13:17:14;6.15;;;5.35;;
10957;SDS011;5531;42.570;23.676;2023-01-08T13:19:52;5.70;;;5.10;;
10957;SDS011;5531;42.570;23.676;2023-01-08T13:22:23;5.82;;;5.03;;
10957;SDS011;5531;42.570;23.676;2023-01-08T13:25:07;4.95;;;4.38;;
10957;SDS011;5531;42.570;23.676;2023-01-08T13:27:53;5.65;;;4.40;;
10957;SDS011;5531;42.570;23.676;2023-01-08T13:33:27;4.97;;;4.00;;
10957;SDS011;5531;42.570;23.676;2023-01-08T13:36:19;4.68;;;4.10;;
10957;SDS011;5531;42.570;23.676;2023-01-08T13:39:00;4.90;;;3.83;;
10957;SDS011;5531;42.570;23.676;2023-01-08T13:41:32;5.93;;;3.88;;
10957;SDS011;5531;42.570;23.676;2023-01-08T13:44:04;4.47;;;3.50;;
10957;SDS011;5531;42.570;23.676;2023-01-08T13:46:42;4.10;;;3.50;;
10957;SDS011;5531;42.570;23.676;2023-01-08T13:49:22;4.35;;;3.65;;
10957;SDS011;5531;42.570;23.676;2023-01-08T13:51:57;5.28;;;3.33;;
10957;SDS011;5531;42.570;23.676;2023-01-08T13:54:36;4.03;;;3.40;;
10957;SDS011;5531;42.570;23.676;2023-01-08T13:57:10;4.35;;;3.50;;
10957;SDS011;5531;42.570;23.676;2023-01-08T13:59:42;5.10;;;3.58;;
10957;SDS011;5531;42.570;23.676;2023-01-08T14:02:26;4.75;;;3.67;;
10957;SDS011;5531;42.570;23.676;2023-01-08T14:04:57;4.28;;;3.55;;
10957;SDS011;5531;42.570;23.676;2023-01-08T14:07:30;5.53;;;3.72;;
10957;SDS011;5531;42.570;23.676;2023-01-08T14:10:10;6.25;;;3.95;;
10957;SDS011;5531;42.570;23.676;2023-01-08T14:12:40;4.90;;;3.58;;
10957;SDS011;5531;42.570;23.676;2023-01-08T14:15:15;13.85;;;12.68;;
10957;SDS011;5531;42.570;23.676;2023-01-08T14:17:49;5.22;;;4.63;;
10957;SDS011;5531;42.570;23.676;2023-01-08T14:20:20;4.90;;;4.40;;
10957;SDS011;5531;42.570;23.676;2023-01-08T14:22:58;5.70;;;4.68;;
10957;SDS011;5531;42.570;23.676;2023-01-08T14:25:28;5.70;;;4.60;;
10957;SDS011;5531;42.570;23.676;2023-01-08T14:27:58;5.63;;;4.65;;
10957;SDS011;5531;42.570;23.676;2023-01-08T14:30:29;5.65;;;4.80;;
10957;SDS011;5531;42.570;23.676;2023-01-08T14:32:59;7.32;;;4.93;;
10957;SDS011;5531;42.570;23.676;2023-01-08T14:35:31;6.50;;;5.05;;
10957;SDS011;5531;42.570;23.676;2023-01-08T14:38:04;6.05;;;5.13;;
10957;SDS011;5531;42.570;23.676;2023-01-08T14:40:40;7.65;;;5.85;;
10957;SDS011;5531;42.570;23.676;2023-01-08T14:43:15;7.68;;;6.35;;
10957;SDS011;5531;42.570;23.676;2023-01-08T14:45:48;6.85;;;6.03;;
10957;SDS011;5531;42.570;23.676;2023-01-08T14:48:20;9.15;;;6.93;;
10957;SDS011;5531;42.570;23.676;2023-01-08T14:50:56;9.02;;;7.63;;
10957;SDS011;5531;42.570;23.676;2023-01-08T14:53:34;8.32;;;6.85;;
10957;SDS011;5531;42.570;23.676;2023-01-08T14:56:06;8.82;;;6.93;;
10957;SDS011;5531;42.570;23.676;2023-01-08T14:58:40;9.50;;;7.20;;
10957;SDS011;5531;42.570;23.676;2023-01-08T15:01:13;9.13;;;6.35;;
10957;SDS011;5531;42.570;23.676;2023-01-08T15:03:45;9.18;;;6.47;;
10957;SDS011;5531;42.570;23.676;2023-01-08T15:06:24;12.27;;;8.52;;
10957;SDS011;5531;42.570;23.676;2023-01-08T15:08:58;11.23;;;8.32;;
10957;SDS011;5531;42.570;23.676;2023-01-08T15:11:29;7.55;;;6.05;;
10957;SDS011;5531;42.570;23.676;2023-01-08T15:13:59;7.03;;;5.25;;
10957;SDS011;5531;42.570;23.676;2023-01-08T15:16:40;5.35;;;4.85;;
10957;SDS011;5531;42.570;23.676;2023-01-08T15:19:10;6.88;;;4.60;;
10957;SDS011;5531;42.570;23.676;2023-01-08T15:21:44;6.28;;;4.45;;
10957;SDS011;5531;42.570;23.676;2023-01-08T15:24:20;4.97;;;4.05;;
10957;SDS011;5531;42.570;23.676;2023-01-08T15:26:51;4.93;;;4.30;;
10957;SDS011;5531;42.570;23.676;2023-01-08T15:29:22;6.63;;;4.20;;